Terminal Aerodrome Forecast
Issued by NWS Northern Indiana

Home | Current Version | Previous Version | Text Only | Print | Product List | Glossary On
Versions: 1 2 3 4 5 6 7 8 9 10 11 12 13 14 15 16 17 18 19 20 21 22
000
FTUS43 KIWX 212200 AAB
TAFFWA
TAF AMD
KFWA 212257Z 2123/2218 20008KT P6SM VCTS SCT025 BKN070CB
      TEMPO 2200/2203 3SM TSRA BKN025CB
     FM220400 20005KT 4SM BR BKN050
     FM221100 22003KT 2SM BR BKN025=

USA.gov is the U.S. government's official web portal to all federal, state and local government web resources and services.